Time;durP1;ratioP1;P1;durP2;ratioP2;P2;SDS_P1;SDS_P2;PMS_P1;PMS_P2;Temp;Humidity;BMP_temperature;BMP_pressure;BME280_temperature;BME280_humidity;BME280_pressure;Samples;Min_cycle;Max_cycle;Signal;HPM_P1;HPM_P2
2022/04/07 00:01:07;;;;;;;0.00;0.00;;;9.70;99.90;;;;;;5036289;28;20037;-82
2022/04/07 00:03:33;;;;;;;0.00;0.00;;;9.50;99.90;;;;;;5052742;28;20204;-83
2022/04/07 00:05:58;;;;;;;0.00;0.00;;;9.60;99.90;;;;;;5052747;28;20052;-83
2022/04/07 00:08:24;;;;;;;0.00;0.00;;;9.50;99.90;;;;;;5036348;28;20072;-84
2022/04/07 00:10:50;;;;;;;2.50;0.63;;;9.40;99.90;;;;;;5052585;28;20509;-85
2022/04/07 00:13:16;;;;;;;0.13;0.10;;;9.40;99.90;;;;;;5052362;28;20041;-84
2022/04/07 00:15:42;;;;;;;0.00;0.00;;;9.40;99.90;;;;;;5052592;28;20447;-84
2022/04/07 00:18:09;;;;;;;0.30;0.10;;;9.40;99.90;;;;;;5052358;28;20056;-84
2022/04/07 00:20:35;;;;;;;0.10;0.10;;;9.40;99.90;;;;;;5052081;28;20400;-84
2022/04/07 00:23:00;;;;;;;0.13;0.05;;;9.40;99.90;;;;;;5052413;28;20041;-84
2022/04/07 00:25:26;;;;;;;0.00;0.00;;;9.40;99.90;;;;;;5052379;28;20049;-85
2022/04/07 00:27:53;;;;;;;0.03;0.03;;;9.40;99.90;;;;;;5035755;28;20135;-84
2022/04/07 00:30:20;;;;;;;0.00;0.00;;;9.40;99.90;;;;;;5036035;28;20049;-84
2022/04/07 00:32:47;;;;;;;0.00;0.00;;;9.40;99.90;;;;;;5035649;28;20049;-83
2022/04/07 00:35:14;;;;;;;0.10;0.10;;;9.40;99.90;;;;;;5052441;28;20051;-83
2022/04/07 00:37:40;;;;;;;0.00;0.00;;;9.40;99.90;;;;;;5035609;28;20091;-83
2022/04/07 00:40:07;;;;;;;0.08;0.00;;;9.50;99.90;;;;;;5035573;28;20041;-83
2022/04/07 00:42:33;;;;;;;0.00;0.00;;;9.40;99.90;;;;;;5052176;28;20044;-82
2022/04/07 00:45:00;;;;;;;0.05;0.00;;;9.40;99.90;;;;;;5052384;28;20063;-83
2022/04/07 00:47:27;;;;;;;0.22;0.20;;;9.40;99.90;;;;;;5035672;28;20135;-83
2022/04/07 00:49:53;;;;;;;0.03;0.03;;;9.40;99.90;;;;;;5052427;28;20192;-83
2022/04/07 00:52:20;;;;;;;0.90;0.80;;;9.40;99.90;;;;;;5035618;28;20072;-83
2022/04/07 00:54:46;;;;;;;0.40;0.40;;;9.40;99.90;;;;;;5037837;28;20055;-83
2022/04/07 00:57:13;;;;;;;0.63;0.63;;;9.40;99.90;;;;;;5056167;28;20500;-82
2022/04/07 00:59:40;;;;;;;0.08;0.08;;;9.40;99.90;;;;;;5056574;28;20037;-82
2022/04/07 01:02:06;;;;;;;0.08;0.00;;;9.40;99.90;;;;;;5039440;28;20045;-83
2022/04/07 01:04:33;;;;;;;0.00;0.00;;;9.30;99.90;;;;;;5056069;28;20138;-82
2022/04/07 01:06:59;;;;;;;0.03;0.03;;;9.30;99.90;;;;;;5039456;28;20068;-82
2022/04/07 01:09:24;;;;;;;0.10;0.10;;;9.30;99.90;;;;;;5039497;28;20061;-82
2022/04/07 01:11:51;;;;;;;0.00;0.00;;;9.30;99.90;;;;;;5055673;28;20047;-82
2022/04/07 01:14:17;;;;;;;0.03;0.03;;;9.30;99.90;;;;;;5055848;28;20132;-82
2022/04/07 01:16:43;;;;;;;0.10;0.10;;;9.30;99.90;;;;;;5055787;28;20489;-82
2022/04/07 01:19:10;;;;;;;0.00;0.00;;;9.30;99.90;;;;;;5056050;28;20045;-82
2022/04/07 01:21:37;;;;;;;0.05;0.03;;;9.30;99.90;;;;;;5056062;28;20424;-82
2022/04/07 01:24:06;;;;;;;0.00;0.00;;;9.40;99.90;;;;;;5039026;28;20056;-82
2022/04/07 01:26:38;;;;;;;0.00;0.00;;;9.30;99.90;;;;;;5055653;28;20535;-82
2022/04/07 01:29:06;;;;;;;0.10;0.00;;;9.30;99.90;;;;;;5055849;28;20056;-82
2022/04/07 01:31:32;;;;;;;0.00;0.00;;;9.30;99.90;;;;;;5055722;28;20484;-82
2022/04/07 01:33:58;;;;;;;0.00;0.00;;;9.30;99.90;;;;;;5038487;28;20102;-82
2022/04/07 01:36:29;;;;;;;0.00;0.00;;;9.30;99.90;;;;;;5055469;28;20127;-82
2022/04/07 01:38:58;;;;;;;0.10;0.00;;;9.30;99.90;;;;;;5038513;28;20063;-82
2022/04/07 01:41:25;;;;;;;0.10;0.08;;;9.30;99.90;;;;;;5039206;28;20061;-82
2022/04/07 01:43:51;;;;;;;0.10;0.00;;;9.30;99.90;;;;;;5055386;28;20169;-81
2022/04/07 01:46:19;;;;;;;0.00;0.00;;;9.20;99.90;;;;;;5055449;28;20090;-81
2022/04/07 01:48:46;;;;;;;0.00;0.00;;;9.30;99.90;;;;;;5038484;28;20065;-82
2022/04/07 01:51:14;;;;;;;0.00;0.00;;;9.20;99.90;;;;;;5055263;28;20385;-81
2022/04/07 01:53:41;;;;;;;0.05;0.05;;;9.30;99.90;;;;;;5055230;28;20044;-82
2022/04/07 01:56:07;;;;;;;0.00;0.00;;;9.20;99.90;;;;;;5054914;28;20049;-82
2022/04/07 01:58:34;;;;;;;0.38;0.00;;;9.20;99.90;;;;;;5055034;28;20044;-82
2022/04/07 02:01:00;;;;;;;0.00;0.00;;;9.20;99.90;;;;;;5038344;28;20049;-82
2022/04/07 02:03:25;;;;;;;0.20;0.10;;;9.20;99.90;;;;;;5054600;28;20064;-81
2022/04/07 02:05:51;;;;;;;0.00;0.00;;;9.20;99.90;;;;;;5037827;28;20048;-82
2022/04/07 02:08:17;;;;;;;0.00;0.00;;;9.10;99.90;;;;;;5054949;28;20080;-82
2022/04/07 02:10:42;;;;;;;0.00;0.00;;;9.20;99.90;;;;;;5054859;28;20037;-82
2022/04/07 02:13:08;;;;;;;0.00;0.00;;;9.20;99.90;;;;;;5055120;28;20136;-82
2022/04/07 02:15:35;;;;;;;0.00;0.00;;;9.10;99.90;;;;;;5038418;28;20156;-82
2022/04/07 02:18:02;;;;;;;0.00;0.00;;;9.10;99.90;;;;;;5037601;28;20056;-82
2022/04/07 02:20:27;;;;;;;0.00;0.00;;;9.20;99.90;;;;;;5054353;28;20393;-82
2022/04/07 02:22:53;;;;;;;0.00;0.00;;;9.20;99.90;;;;;;5054840;28;20048;-82
2022/04/07 02:25:23;;;;;;;0.00;0.00;;;9.20;99.90;;;;;;5054418;28;20107;-82
2022/04/07 02:27:49;;;;;;;0.03;0.00;;;9.20;99.90;;;;;;5054669;28;20095;-82
2022/04/07 02:30:14;;;;;;;0.00;0.00;;;9.20;99.90;;;;;;5054581;28;20052;-82
2022/04/07 02:32:41;;;;;;;0.00;0.00;;;9.20;99.90;;;;;;5054508;28;20048;-82
2022/04/07 02:35:08;;;;;;;0.08;0.00;;;9.20;99.90;;;;;;5054379;28;20053;-82
2022/04/07 02:37:34;;;;;;;0.00;0.00;;;9.20;99.90;;;;;;5037450;28;20060;-82
2022/04/07 02:40:00;;;;;;;0.10;0.00;;;9.20;99.90;;;;;;5054185;28;20098;-83
2022/04/07 02:42:25;;;;;;;0.00;0.00;;;9.20;99.90;;;;;;5054730;28;20048;-82
2022/04/07 02:44:51;;;;;;;0.00;0.00;;;9.20;99.90;;;;;;5054335;28;20049;-82
2022/04/07 02:47:17;;;;;;;0.00;0.00;;;9.20;99.90;;;;;;5054071;28;20051;-82
2022/04/07 02:49:43;;;;;;;0.00;0.00;;;9.20;99.90;;;;;;5054006;28;20051;-82
2022/04/07 02:52:10;;;;;;;0.22;0.00;;;9.20;99.90;;;;;;5054585;28;20480;-82
2022/04/07 02:54:36;;;;;;;5.75;0.10;;;9.20;99.90;;;;;;5037490;28;20099;-82
2022/04/07 02:57:02;;;;;;;0.00;0.00;;;9.20;99.90;;;;;;5053974;28;20439;-82
2022/04/07 02:59:28;;;;;;;0.00;0.00;;;9.20;99.90;;;;;;5036506;28;20091;-82
2022/04/07 03:01:56;;;;;;;0.05;0.05;;;9.20;99.90;;;;;;5051793;28;20076;-82
2022/04/07 03:04:24;;;;;;;0.00;0.00;;;9.20;99.90;;;;;;5051414;28;20053;-84
2022/04/07 03:06:51;;;;;;;0.55;0.13;;;9.10;99.90;;;;;;5051633;28;20049;-83
2022/04/07 03:09:18;;;;;;;0.20;0.10;;;9.10;99.90;;;;;;5051268;28;20496;-83
2022/04/07 03:11:45;;;;;;;0.00;0.00;;;9.10;99.90;;;;;;5034749;28;20049;-84
2022/04/07 03:14:12;;;;;;;0.08;0.03;;;9.10;99.90;;;;;;5051360;28;20633;-84
2022/04/07 03:16:38;;;;;;;0.38;0.20;;;9.10;99.90;;;;;;5051491;28;20051;-85
2022/04/07 03:19:03;;;;;;;0.75;0.22;;;9.00;99.90;;;;;;5052708;28;20132;-85
2022/04/07 03:21:29;;;;;;;0.47;0.35;;;9.00;99.90;;;;;;5036894;28;20045;-84
2022/04/07 03:23:55;;;;;;;0.00;0.00;;;9.00;99.90;;;;;;5053215;28;20041;-85
2022/04/07 03:26:20;;;;;;;0.22;0.22;;;9.00;99.90;;;;;;5053373;28;20084;-84
2022/04/07 03:28:46;;;;;;;0.00;0.00;;;8.90;99.90;;;;;;5053140;28;20132;-84
2022/04/07 03:31:12;;;;;;;0.00;0.00;;;8.90;99.90;;;;;;5053316;28;20049;-84
2022/04/07 03:33:37;;;;;;;0.30;0.30;;;8.90;99.90;;;;;;5053436;28;20045;-84
2022/04/07 03:36:03;;;;;;;0.00;0.00;;;8.90;99.90;;;;;;5053341;28;20103;-84
2022/04/07 03:38:29;;;;;;;0.30;0.00;;;8.90;99.90;;;;;;5053399;28;20407;-84
2022/04/07 03:40:55;;;;;;;0.08;0.08;;;8.90;99.90;;;;;;5036391;28;20049;-84
2022/04/07 03:43:21;;;;;;;0.00;0.00;;;8.90;99.90;;;;;;5053258;28;20096;-84
2022/04/07 03:45:47;;;;;;;0.00;0.00;;;8.90;99.90;;;;;;5053192;28;20041;-84
2022/04/07 03:48:13;;;;;;;0.28;0.28;;;8.90;99.90;;;;;;5036277;28;20049;-84
2022/04/07 03:50:38;;;;;;;0.00;0.00;;;8.90;99.90;;;;;;5052724;28;20377;-85
2022/04/07 03:53:04;;;;;;;0.00;0.00;;;8.90;99.90;;;;;;5036543;28;20057;-85
2022/04/07 03:55:30;;;;;;;0.05;0.05;;;8.80;99.90;;;;;;5052588;28;20453;-85
2022/04/07 03:57:56;;;;;;;0.00;0.00;;;8.90;99.90;;;;;;5052866;28;20033;-84
2022/04/07 04:00:22;;;;;;;0.17;0.05;;;8.80;99.90;;;;;;5052557;28;20068;-84
2022/04/07 04:02:50;;;;;;;0.10;0.00;;;8.90;99.90;;;;;;5036292;28;20056;-83
2022/04/07 04:05:17;;;;;;;0.10;0.10;;;8.90;99.90;;;;;;5052760;28;20127;-83
2022/04/07 04:07:42;;;;;;;0.43;0.10;;;8.90;99.90;;;;;;5052569;28;20041;-84
2022/04/07 04:10:08;;;;;;;0.00;0.00;;;8.90;99.90;;;;;;5036061;28;20148;-83
2022/04/07 04:12:34;;;;;;;0.25;0.20;;;8.90;99.90;;;;;;5035940;28;20088;-84
2022/04/07 04:15:01;;;;;;;0.00;0.00;;;8.90;99.90;;;;;;5035964;28;20051;-83
2022/04/07 04:17:30;;;;;;;0.17;0.03;;;8.90;99.90;;;;;;5035843;28;20052;-83
2022/04/07 04:19:56;;;;;;;1.95;0.70;;;8.90;99.90;;;;;;5035039;28;20128;-83
2022/04/07 04:22:21;;;;;;;0.17;0.17;;;8.90;99.90;;;;;;5035172;28;20049;-82
2022/04/07 04:24:48;;;;;;;0.00;0.00;;;8.90;99.90;;;;;;5051664;28;20052;-82
2022/04/07 04:27:14;;;;;;;6.18;0.20;;;8.90;99.90;;;;;;5035303;28;20067;-82
2022/04/07 04:29:40;;;;;;;0.10;0.10;;;8.90;99.90;;;;;;5033687;28;20052;-82
2022/04/07 04:32:06;;;;;;;0.08;0.08;;;8.90;99.90;;;;;;5051331;28;20084;-82
2022/04/07 04:34:32;;;;;;;0.10;0.10;;;8.90;99.90;;;;;;5051733;28;20054;-82
2022/04/07 04:36:58;;;;;;;6.20;0.17;;;8.90;99.90;;;;;;5051582;28;20436;-82
2022/04/07 04:39:24;;;;;;;0.45;0.35;;;8.90;99.90;;;;;;5051286;28;20072;-83
2022/04/07 04:41:50;;;;;;;0.03;0.00;;;8.90;99.90;;;;;;5051269;28;20033;-83
2022/04/07 04:44:16;;;;;;;0.00;0.00;;;8.90;99.90;;;;;;5034872;28;20103;-83
2022/04/07 04:46:42;;;;;;;0.10;0.00;;;8.80;99.90;;;;;;5034875;28;20041;-83
2022/04/07 04:49:07;;;;;;;0.00;0.00;;;8.80;99.90;;;;;;5035005;28;20045;-84
2022/04/07 04:51:33;;;;;;;0.28;0.28;;;8.80;99.90;;;;;;5051410;28;20037;-84
2022/04/07 04:53:59;;;;;;;0.20;0.20;;;8.80;99.90;;;;;;5051384;28;20041;-85
2022/04/07 04:56:27;;;;;;;0.43;0.15;;;8.80;99.90;;;;;;5052118;28;20048;-85
2022/04/07 04:58:57;;;;;;;0.00;0.00;;;8.80;99.90;;;;;;5050737;28;20053;-84
2022/04/07 05:01:24;;;;;;;0.55;0.52;;;8.80;99.90;;;;;;5034918;28;20136;-84
2022/04/07 05:03:49;;;;;;;0.00;0.00;;;8.90;99.90;;;;;;5051273;28;20049;-85
2022/04/07 05:06:15;;;;;;;0.28;0.28;;;8.80;99.90;;;;;;5052397;28;20041;-84
2022/04/07 05:08:41;;;;;;;0.00;0.00;;;8.80;99.90;;;;;;5051099;28;20041;-84
2022/04/07 05:11:07;;;;;;;0.90;0.10;;;8.80;99.90;;;;;;5034713;28;20049;-84
2022/04/07 05:13:33;;;;;;;0.98;0.45;;;8.80;99.90;;;;;;5034522;28;20092;-84
2022/04/07 05:15:58;;;;;;;0.00;0.00;;;8.80;99.90;;;;;;5051150;28;20052;-84
2022/04/07 05:18:24;;;;;;;0.10;0.10;;;8.80;99.90;;;;;;4995584;28;1119174;-84
2022/04/07 05:20:50;;;;;;;0.00;0.00;;;8.90;99.90;;;;;;5035085;28;20480;-84
2022/04/07 05:23:15;;;;;;;0.10;0.10;;;8.90;99.90;;;;;;5035586;28;20052;-84
2022/04/07 05:25:41;;;;;;;0.20;0.15;;;8.90;99.90;;;;;;5034966;28;20067;-84
2022/04/07 05:28:07;;;;;;;2.38;0.35;;;8.90;99.90;;;;;;5051628;28;20086;-84
2022/04/07 05:30:33;;;;;;;0.20;0.20;;;9.00;99.90;;;;;;5051971;28;20080;-85
2022/04/07 05:32:58;;;;;;;0.00;0.00;;;8.90;99.90;;;;;;5051789;28;20047;-85
2022/04/07 05:35:28;;;;;;;0.00;0.00;;;8.90;99.90;;;;;;5051965;28;20053;-85
2022/04/07 05:38:04;;;;;;;0.55;0.30;;;8.90;99.90;;;;;;5051892;28;20110;-85
2022/04/07 05:40:30;;;;;;;0.00;0.00;;;8.90;99.90;;;;;;5053126;28;20040;-85
2022/04/07 05:42:56;;;;;;;0.65;0.13;;;8.90;99.90;;;;;;5038274;28;20124;-85
2022/04/07 05:45:22;;;;;;;0.00;0.00;;;8.90;99.90;;;;;;5038818;28;20071;-85
2022/04/07 05:47:48;;;;;;;0.20;0.00;;;8.90;99.90;;;;;;5055348;28;20135;-84
2022/04/07 05:50:14;;;;;;;0.10;0.10;;;8.90;99.90;;;;;;5038823;28;20060;-84
2022/04/07 05:52:40;;;;;;;1.45;0.80;;;8.90;99.90;;;;;;5039122;28;20064;-84
2022/04/07 05:55:06;;;;;;;0.10;0.10;;;8.90;99.90;;;;;;5055156;28;20037;-84
2022/04/07 05:57:32;;;;;;;0.28;0.10;;;8.90;99.90;;;;;;5039101;28;20139;-84
2022/04/07 06:00:05;;;;;;;0.00;0.00;;;8.90;99.90;;;;;;5038834;28;20073;-84
2022/04/07 06:02:30;;;;;;;0.10;0.05;;;8.90;99.90;;;;;;5038772;28;20052;-84
2022/04/07 06:04:56;;;;;;;0.00;0.00;;;8.90;99.90;;;;;;5038725;28;20106;-85
2022/04/07 06:07:22;;;;;;;0.00;0.00;;;8.90;99.90;;;;;;5038399;28;20511;-85
2022/04/07 06:09:48;;;;;;;0.00;0.00;;;8.90;99.90;;;;;;5054678;28;20091;-83
2022/04/07 06:12:13;;;;;;;0.13;0.13;;;8.90;99.90;;;;;;5054952;28;20069;-82
2022/04/07 06:14:39;;;;;;;0.00;0.00;;;8.90;99.90;;;;;;5054905;28;20052;-83
2022/04/07 06:17:05;;;;;;;0.00;0.00;;;8.80;99.90;;;;;;5038375;28;20051;-84
2022/04/07 06:19:30;;;;;;;0.00;0.00;;;8.30;99.90;;;;;;5054361;28;20056;-84
2022/04/07 06:21:56;;;;;;;0.00;0.00;;;8.10;99.90;;;;;;5038726;28;20052;-83
2022/04/07 06:24:22;;;;;;;0.15;0.10;;;7.60;99.90;;;;;;5054472;28;20056;-83
2022/04/07 06:26:49;;;;;;;0.00;0.00;;;7.60;99.90;;;;;;5055229;28;20052;-84
2022/04/07 06:29:15;;;;;;;0.00;0.00;;;7.10;99.90;;;;;;5054370;28;20128;-84
2022/04/07 06:31:40;;;;;;;0.00;0.00;;;7.00;99.90;;;;;;5054545;28;20084;-83
2022/04/07 06:34:06;;;;;;;0.00;0.00;;;6.90;99.90;;;;;;5054365;28;20080;-82
2022/04/07 06:36:32;;;;;;;0.00;0.00;;;6.80;99.90;;;;;;5054339;28;20041;-83
2022/04/07 06:38:58;;;;;;;0.00;0.00;;;6.80;99.90;;;;;;5037449;28;20045;-83
2022/04/07 06:41:23;;;;;;;0.00;0.00;;;6.70;99.90;;;;;;5054096;28;20053;-83
2022/04/07 06:43:49;;;;;;;0.00;0.00;;;6.70;99.90;;;;;;5037147;28;20056;-83
2022/04/07 06:46:14;;;;;;;0.00;0.00;;;6.70;99.90;;;;;;5054002;28;20052;-84
2022/04/07 06:48:40;;;;;;;0.00;0.00;;;6.60;99.90;;;;;;5054293;28;20045;-84
2022/04/07 06:51:06;;;;;;;0.00;0.00;;;6.60;99.90;;;;;;5053438;28;20053;-84
2022/04/07 06:53:31;;;;;;;0.00;0.00;;;6.50;99.90;;;;;;5036884;28;20378;-84
2022/04/07 06:55:57;;;;;;;0.00;0.00;;;6.50;99.90;;;;;;5037385;28;20114;-84
2022/04/07 06:58:23;;;;;;;0.00;0.00;;;6.50;99.90;;;;;;5053845;28;20499;-83
2022/04/07 07:00:48;;;;;;;0.00;0.00;;;6.40;99.90;;;;;;5053798;28;20049;-83
2022/04/07 07:03:15;;;;;;;0.00;0.00;;;6.30;99.90;;;;;;5053686;28;20044;-83
2022/04/07 07:05:41;;;;;;;0.00;0.00;;;6.30;99.90;;;;;;5037380;28;20087;-83
2022/04/07 07:08:19;;;;;;;0.00;0.00;;;6.30;99.90;;;;;;5053870;28;20128;-82
2022/04/07 07:10:47;;;;;;;0.00;0.00;;;6.30;99.90;;;;;;5037789;28;20147;-83
2022/04/07 07:13:14;;;;;;;2.20;0.32;;;6.20;99.90;;;;;;5037210;28;20147;-83
2022/04/07 07:15:43;;;;;;;0.00;0.00;;;6.10;99.90;;;;;;5036847;28;20087;-83
2022/04/07 07:18:09;;;;;;;0.47;0.22;;;6.10;99.90;;;;;;5053421;28;20057;-83
2022/04/07 07:20:35;;;;;;;0.00;0.00;;;6.00;99.90;;;;;;5053028;28;20135;-83
2022/04/07 07:23:01;;;;;;;0.47;0.20;;;6.00;99.90;;;;;;5036664;28;20048;-83
2022/04/07 07:25:30;;;;;;;0.03;0.03;;;5.90;99.90;;;;;;5053698;28;20396;-83
2022/04/07 07:27:57;;;;;;;0.00;0.00;;;5.90;99.90;;;;;;5053347;28;20127;-83
2022/04/07 07:30:22;;;;;;;0.00;0.00;;;6.00;99.90;;;;;;5037135;28;20079;-83
2022/04/07 07:32:48;;;;;;;0.00;0.00;;;5.80;99.90;;;;;;5052181;28;20045;-83
2022/04/07 07:35:19;;;;;;;0.00;0.00;;;5.80;99.90;;;;;;5036303;28;20685;-83
2022/04/07 07:38:01;;;;;;;0.00;0.00;;;5.70;99.90;;;;;;5053277;28;20374;-83
2022/04/07 07:40:32;;;;;;;0.00;0.00;;;5.70;99.90;;;;;;5053218;28;20041;-83
2022/04/07 07:43:00;;;;;;;0.00;0.00;;;5.60;99.90;;;;;;5036326;28;20076;-83
2022/04/07 07:45:34;;;;;;;0.00;0.00;;;5.60;99.90;;;;;;5053238;28;20072;-83
2022/04/07 07:47:59;;;;;;;0.00;0.00;;;5.60;99.90;;;;;;5036811;28;20044;-84
2022/04/07 07:50:25;;;;;;;0.00;0.00;;;5.60;99.90;;;;;;5053050;28;20374;-84
2022/04/07 07:52:51;;;;;;;0.00;0.00;;;5.60;99.90;;;;;;5036026;28;20611;-83
2022/04/07 07:55:17;;;;;;;0.00;0.00;;;5.60;99.90;;;;;;5052895;28;20128;-83
2022/04/07 07:57:43;;;;;;;0.00;0.00;;;5.60;99.90;;;;;;5052954;28;20053;-83
2022/04/07 08:00:10;;;;;;;0.00;0.00;;;5.60;99.90;;;;;;5052668;28;20037;-83
2022/04/07 08:02:37;;;;;;;0.05;0.00;;;5.60;99.90;;;;;;5052702;28;20051;-82
2022/04/07 08:05:04;;;;;;;0.00;0.00;;;5.60;99.90;;;;;;5036235;28;20065;-82
2022/04/07 08:07:30;;;;;;;0.00;0.00;;;5.60;99.90;;;;;;5052781;28;20049;-83
2022/04/07 08:09:56;;;;;;;0.00;0.00;;;5.70;99.90;;;;;;5036114;28;20503;-82
2022/04/07 08:12:23;;;;;;;0.00;0.00;;;5.70;99.90;;;;;;5052709;28;20041;-83
2022/04/07 08:14:49;;;;;;;0.00;0.00;;;5.60;99.90;;;;;;5052705;28;20049;-83
2022/04/07 08:17:15;;;;;;;0.00;0.00;;;5.70;99.90;;;;;;5036558;28;20079;-83
2022/04/07 08:19:40;;;;;;;0.00;0.00;;;5.70;99.90;;;;;;5035927;28;20404;-82
2022/04/07 08:22:07;;;;;;;1.13;0.28;;;5.80;99.90;;;;;;5052953;28;20124;-82
2022/04/07 08:24:36;;;;;;;0.00;0.00;;;5.80;99.90;;;;;;5052649;28;20051;-82
2022/04/07 08:27:04;;;;;;;0.00;0.00;;;5.80;99.90;;;;;;5052584;28;20052;-84
2022/04/07 08:29:30;;;;;;;0.00;0.00;;;5.80;99.90;;;;;;5035783;28;20041;-83
2022/04/07 08:31:56;;;;;;;0.00;0.00;;;5.90;99.90;;;;;;5036139;28;20140;-83
2022/04/07 08:34:22;;;;;;;0.00;0.00;;;5.90;99.90;;;;;;5052272;28;20048;-83
2022/04/07 08:36:48;;;;;;;0.00;0.00;;;5.90;99.90;;;;;;5052442;28;20114;-83
2022/04/07 08:39:14;;;;;;;0.00;0.00;;;5.90;99.90;;;;;;5052266;28;20041;-82
2022/04/07 08:41:42;;;;;;;0.00;0.00;;;6.00;99.90;;;;;;5035796;28;20052;-82
2022/04/07 08:44:08;;;;;;;0.00;0.00;;;5.90;99.90;;;;;;5035779;28;20041;-82
2022/04/07 08:46:34;;;;;;;0.00;0.00;;;6.00;99.90;;;;;;5035695;28;20515;-82
2022/04/07 08:49:03;;;;;;;0.00;0.00;;;6.10;99.90;;;;;;5035633;28;20057;-82
2022/04/07 08:51:29;;;;;;;0.00;0.00;;;6.20;99.90;;;;;;5035745;28;20053;-82
2022/04/07 08:53:56;;;;;;;0.00;0.00;;;6.30;99.90;;;;;;5052369;28;20381;-82
2022/04/07 08:56:23;;;;;;;0.00;0.00;;;6.30;99.90;;;;;;5052228;28;20045;-81
2022/04/07 08:58:49;;;;;;;0.00;0.00;;;6.30;99.90;;;;;;5035623;28;20132;-81
2022/04/07 09:01:15;;;;;;;0.00;0.00;;;6.50;99.90;;;;;;5035885;28;20456;-81
2022/04/07 09:03:43;;;;;;;0.00;0.00;;;6.90;99.90;;;;;;5051911;28;20131;-81
2022/04/07 09:06:09;;;;;;;0.00;0.00;;;7.30;99.90;;;;;;5052076;28;20383;-81
2022/04/07 09:08:40;;;;;;;0.00;0.00;;;7.60;99.90;;;;;;5035366;28;20144;-81
2022/04/07 09:11:07;;;;;;;0.00;0.00;;;8.10;99.90;;;;;;5051762;28;20136;-81
2022/04/07 09:13:42;;;;;;;0.05;0.00;;;8.40;99.90;;;;;;5035696;28;20404;-81
2022/04/07 09:16:12;;;;;;;0.00;0.00;;;8.80;99.90;;;;;;5054564;28;20480;-81
2022/04/07 09:18:38;;;;;;;0.00;0.00;;;9.10;99.90;;;;;;5039063;28;20049;-81
2022/04/07 09:21:05;;;;;;;3.63;0.73;;;9.40;99.90;;;;;;5038814;28;20149;-81
2022/04/07 09:23:41;;;;;;;0.00;0.00;;;9.50;99.90;;;;;;5055637;28;20085;-81
2022/04/07 09:26:14;;;;;;;0.00;0.00;;;9.80;99.90;;;;;;5055790;28;20045;-81
2022/04/07 09:28:41;;;;;;;0.00;0.00;;;9.90;99.90;;;;;;5055935;28;20457;-81
2022/04/07 09:31:12;;;;;;;0.00;0.00;;;10.10;99.90;;;;;;5055645;28;20488;-81
2022/04/07 09:33:38;;;;;;;0.00;0.00;;;10.20;99.90;;;;;;5039200;28;20470;-88
2022/04/07 09:36:06;;;;;;;2.35;0.75;;;10.40;99.90;;;;;;5055954;28;20136;-81
2022/04/07 09:38:34;;;;;;;0.00;0.00;;;10.60;99.90;;;;;;5056154;28;20088;-81
2022/04/07 09:41:19;;;;;;;0.00;0.00;;;10.60;99.90;;;;;;5038450;28;20136;-81
2022/04/07 09:43:49;;;;;;;0.00;0.00;;;10.80;99.90;;;;;;5038988;28;20110;-81
2022/04/07 09:46:19;;;;;;;2.10;1.08;;;11.10;99.90;;;;;;5038909;28;20103;-81
2022/04/07 09:49:07;;;;;;;0.00;0.00;;;11.10;99.90;;;;;;5055550;28;20489;-82
2022/04/07 09:52:01;;;;;;;0.00;0.00;;;11.20;99.90;;;;;;5038647;28;20547;-81
2022/04/07 09:54:29;;;;;;;0.55;0.55;;;11.10;99.90;;;;;;5036523;28;20198;-81
2022/04/07 09:56:55;;;;;;;0.00;0.00;;;11.00;99.90;;;;;;5055376;28;20416;-81
2022/04/07 09:59:21;;;;;;;0.00;0.00;;;11.10;99.90;;;;;;5038476;28;20041;-81
2022/04/07 10:01:50;;;;;;;0.00;0.00;;;11.20;99.90;;;;;;5038528;28;20057;-81
2022/04/07 10:04:19;;;;;;;0.00;0.00;;;11.30;99.90;;;;;;5055417;28;20053;-81
2022/04/07 10:06:46;;;;;;;0.00;0.00;;;11.30;99.90;;;;;;5038176;28;20060;-81
2022/04/07 10:09:13;;;;;;;0.00;0.00;;;11.10;99.90;;;;;;5038111;28;20105;-81
2022/04/07 10:11:40;;;;;;;0.00;0.00;;;11.00;99.90;;;;;;5038372;28;20514;-83
2022/04/07 10:14:05;;;;;;;0.00;0.00;;;10.70;99.90;;;;;;5038007;28;20045;-82
2022/04/07 10:16:32;;;;;;;0.30;0.30;;;10.60;99.90;;;;;;5038932;28;20068;-81
2022/04/07 10:19:17;;;;;;;0.00;0.00;;;10.60;99.90;;;;;;5037764;28;20060;-80
2022/04/07 10:21:48;;;;;;;0.00;0.00;;;10.60;99.90;;;;;;5040017;28;20045;-82
2022/04/07 10:24:33;;;;;;;0.00;0.00;;;10.50;99.90;;;;;;5038263;28;20434;-82
2022/04/07 10:27:01;;;;;;;0.00;0.00;;;10.40;99.90;;;;;;5069790;28;20404;-82
2022/04/07 10:29:29;;;;;;;0.00;0.00;;;10.30;99.90;;;;;;5057598;28;20141;-82
2022/04/07 10:32:13;;;;;;;0.00;0.00;;;10.30;99.90;;;;;;5074551;28;20053;-82
2022/04/07 10:34:51;;;;;;;0.08;0.08;;;10.30;99.90;;;;;;5058056;28;20395;-81
2022/04/07 10:37:43;;;;;;;0.10;0.10;;;10.30;99.90;;;;;;5057671;28;20484;-81
2022/04/07 10:40:44;;;;;;;0.00;0.00;;;10.20;99.90;;;;;;5057692;28;20040;-81
2022/04/07 10:43:21;;;;;;;0.10;0.10;;;10.10;99.90;;;;;;5037117;28;20095;-81
2022/04/07 10:45:51;;;;;;;0.00;0.00;;;9.90;99.90;;;;;;5019931;28;20516;-81
2022/04/07 10:48:28;;;;;;;2.92;0.80;;;9.80;99.90;;;;;;5036548;28;20080;-81
2022/04/07 10:51:02;;;;;;;0.10;0.10;;;9.90;99.90;;;;;;5019694;28;20049;-81
2022/04/07 10:53:33;;;;;;;0.00;0.00;;;10.30;99.90;;;;;;5037067;28;20064;-82
2022/04/07 10:56:03;;;;;;;0.00;0.00;;;10.60;99.90;;;;;;5036171;28;20045;-81
2022/04/07 10:58:52;;;;;;;0.00;0.00;;;10.80;99.90;;;;;;5019859;28;20603;-81
2022/04/07 11:01:29;;;;;;;0.00;0.00;;;11.10;99.90;;;;;;5035898;28;20124;-81
2022/04/07 11:04:16;;;;;;;0.00;0.00;;;11.20;99.90;;;;;;5035845;28;20645;-81
2022/04/07 11:07:10;;;;;;;0.00;0.00;;;11.20;99.90;;;;;;5036279;28;20056;-81
2022/04/07 11:09:55;;;;;;;0.00;0.00;;;11.30;99.90;;;;;;5036155;28;20088;-81
2022/04/07 11:13:06;;;;;;;0.00;0.00;;;11.50;99.90;;;;;;5036132;28;20053;-81
2022/04/07 11:15:44;;;;;;;0.00;0.00;;;11.40;99.90;;;;;;4961312;28;20209;-82
2022/04/07 11:18:20;;;;;;;0.75;0.65;;;11.50;99.90;;;;;;4987700;28;20057;-82
2022/04/07 11:21:11;;;;;;;0.30;0.17;;;11.60;99.90;;;;;;5032402;28;20091;-82
2022/04/07 11:24:06;;;;;;;0.00;0.00;;;11.80;99.90;;;;;;5016026;28;20052;-81
2022/04/07 11:26:34;;;;;;;0.00;0.00;;;11.60;99.90;;;;;;5014430;28;20088;-82
2022/04/07 11:29:02;;;;;;;0.93;0.20;;;11.00;99.90;;;;;;5016150;28;20393;-81
2022/04/07 11:31:45;;;;;;;0.30;0.30;;;10.30;99.90;;;;;;5015901;28;20042;-81
2022/04/07 11:34:41;;;;;;;0.00;0.00;;;9.90;99.90;;;;;;5016026;28;20043;-81
2022/04/07 11:37:11;;;;;;;0.00;0.00;;;9.70;99.90;;;;;;4957892;28;20050;-81
2022/04/07 11:39:41;;;;;;;0.00;0.00;;;9.70;99.90;;;;;;4957438;28;20086;-82
2022/04/07 11:42:07;;;;;;;0.00;0.00;;;10.10;99.90;;;;;;4973710;28;20478;-82
2022/04/07 11:44:33;;;;;;;0.00;0.00;;;10.20;99.90;;;;;;4957241;28;20051;-82
2022/04/07 11:47:03;;;;;;;0.00;0.00;;;10.50;99.90;;;;;;4957358;28;20051;-82
2022/04/07 11:49:29;;;;;;;0.32;0.10;;;10.60;99.90;;;;;;4957087;28;20203;-82
2022/04/07 11:51:55;;;;;;;0.08;0.08;;;10.90;99.90;;;;;;4979729;28;20102;-82
2022/04/07 11:54:22;;;;;;;0.00;0.00;;;11.10;99.90;;;;;;5015598;28;20050;-82
2022/04/07 11:56:48;;;;;;;0.43;0.43;;;11.10;99.90;;;;;;5015892;28;20053;-82
2022/04/07 11:59:15;;;;;;;0.00;0.00;;;11.00;99.90;;;;;;5014973;28;20057;-81
2022/04/07 12:01:45;;;;;;;0.08;0.00;;;10.90;99.90;;;;;;5015558;28;20058;-81
2022/04/07 12:04:13;;;;;;;0.00;0.00;;;10.80;99.90;;;;;;4999056;28;20057;-82
2022/04/07 12:06:41;;;;;;;2.17;0.43;;;10.90;99.90;;;;;;5015378;28;20062;-81
2022/04/07 12:09:07;;;;;;;1.35;0.28;;;11.00;99.90;;;;;;5015752;28;20456;-81
2022/04/07 12:11:35;;;;;;;0.00;0.00;;;11.20;99.90;;;;;;5015226;28;20042;-82
2022/04/07 12:14:05;;;;;;;0.00;0.00;;;11.30;99.90;;;;;;5045040;28;20063;-81
2022/04/07 12:16:31;;;;;;;0.00;0.00;;;11.40;99.90;;;;;;5055811;28;20083;-82
2022/04/07 12:19:07;;;;;;;4.30;0.30;;;11.60;99.90;;;;;;5072666;28;20048;-82
2022/04/07 12:21:53;;;;;;;0.00;0.00;;;11.60;99.90;;;;;;5055778;28;20055;-82
2022/04/07 12:24:19;;;;;;;0.32;0.32;;;11.40;99.90;;;;;;5072462;28;20055;-82
2022/04/07 12:26:47;;;;;;;0.00;0.00;;;11.40;99.90;;;;;;5055878;28;20055;-82
2022/04/07 12:29:25;;;;;;;2.13;0.88;;;11.30;99.90;;;;;;5072539;28;20048;-82
2022/04/07 12:32:09;;;;;;;0.00;0.00;;;11.30;99.90;;;;;;5055679;28;20459;-82
2022/04/07 12:34:50;;;;;;;0.20;0.20;;;11.10;99.90;;;;;;5072506;28;20049;-82
2022/04/07 12:37:37;;;;;;;0.65;0.65;;;11.10;99.90;;;;;;5072358;28;20047;-82
2022/04/07 12:40:27;;;;;;;4.70;1.33;;;11.40;99.90;;;;;;5055556;28;20055;-82
2022/04/07 12:42:54;;;;;;;1.45;0.45;;;11.70;99.90;;;;;;5034422;28;20386;-82
2022/04/07 12:45:23;;;;;;;0.10;0.08;;;12.10;99.90;;;;;;5034710;28;20532;-82
2022/04/07 12:48:05;;;;;;;8.77;0.20;;;12.10;99.90;;;;;;5034658;28;20119;-82
2022/04/07 12:50:33;;;;;;;0.00;0.00;;;12.10;99.90;;;;;;5036282;28;20444;-82
2022/04/07 12:52:59;;;;;;;0.15;0.15;;;12.10;99.90;;;;;;5038803;28;20048;-82
2022/04/07 12:55:37;;;;;;;0.00;0.00;;;12.30;99.90;;;;;;5038712;28;20147;-82
2022/04/07 12:58:04;;;;;;;1.08;0.47;;;12.20;99.90;;;;;;5022281;28;20045;-82
2022/04/07 13:00:34;;;;;;;0.00;0.00;;;12.20;99.90;;;;;;5038475;28;20143;-82
2022/04/07 13:03:02;;;;;;;0.43;0.10;;;12.20;99.80;;;;;;5038538;28;20041;-81